sensor_id;sensor_type;location;lat;lon;timestamp;P1;durP1;ratioP1;P2;durP2;ratioP2
72123;SDS011;59998;37.126;-8.538;2022-08-04T00:01:30;13.7;;;7.7;;
72123;SDS011;59998;37.126;-8.538;2022-08-04T00:06:19;14.0;;;7.4;;
72123;SDS011;59998;37.126;-8.538;2022-08-04T00:11:20;14.5;;;7.4;;
72123;SDS011;59998;37.126;-8.538;2022-08-04T00:16:11;13.2;;;7.1;;
72123;SDS011;59998;37.126;-8.538;2022-08-04T00:20:59;13.6;;;7.1;;
72123;SDS011;59998;37.126;-8.538;2022-08-04T00:25:50;13.3;;;7.7;;
72123;SDS011;59998;37.126;-8.538;2022-08-04T00:30:37;14.2;;;8.0;;
72123;SDS011;59998;37.126;-8.538;2022-08-04T00:35:28;15.4;;;7.7;;
72123;SDS011;59998;37.126;-8.538;2022-08-04T00:40:20;13.1;;;7.4;;
72123;SDS011;59998;37.126;-8.538;2022-08-04T00:45:22;11.9;;;7.0;;
72123;SDS011;59998;37.126;-8.538;2022-08-04T00:50:30;13.9;;;7.1;;
72123;SDS011;59998;37.126;-8.538;2022-08-04T00:55:30;14.4;;;7.1;;
72123;SDS011;59998;37.126;-8.538;2022-08-04T01:00:40;16.4;;;7.0;;
72123;SDS011;59998;37.126;-8.538;2022-08-04T01:05:34;16.9;;;7.3;;
72123;SDS011;59998;37.126;-8.538;2022-08-04T01:10:37;15.9;;;8.0;;
72123;SDS011;59998;37.126;-8.538;2022-08-04T01:15:35;15.4;;;7.9;;
72123;SDS011;59998;37.126;-8.538;2022-08-04T01:20:32;16.8;;;7.4;;
72123;SDS011;59998;37.126;-8.538;2022-08-04T01:25:28;17.5;;;7.7;;
72123;SDS011;59998;37.126;-8.538;2022-08-04T01:30:22;16.8;;;8.3;;
72123;SDS011;59998;37.126;-8.538;2022-08-04T01:35:10;15.5;;;7.9;;
72123;SDS011;59998;37.126;-8.538;2022-08-04T01:40:03;15.3;;;7.7;;
72123;SDS011;59998;37.126;-8.538;2022-08-04T01:44:50;14.7;;;7.9;;
72123;SDS011;59998;37.126;-8.538;2022-08-04T01:49:40;12.0;;;7.9;;
72123;SDS011;59998;37.126;-8.538;2022-08-04T01:54:27;18.2;;;7.9;;
72123;SDS011;59998;37.126;-8.538;2022-08-04T01:59:17;18.4;;;7.7;;
72123;SDS011;59998;37.126;-8.538;2022-08-04T02:04:05;14.3;;;7.9;;
72123;SDS011;59998;37.126;-8.538;2022-08-04T02:08:53;14.3;;;7.8;;
72123;SDS011;59998;37.126;-8.538;2022-08-04T02:13:50;14.0;;;7.7;;
72123;SDS011;59998;37.126;-8.538;2022-08-04T02:18:42;14.9;;;7.8;;
72123;SDS011;59998;37.126;-8.538;2022-08-04T02:23:39;14.6;;;8.5;;
72123;SDS011;59998;37.126;-8.538;2022-08-04T02:28:29;13.8;;;8.7;;
72123;SDS011;59998;37.126;-8.538;2022-08-04T02:33:19;15.1;;;7.7;;
72123;SDS011;59998;37.126;-8.538;2022-08-04T02:38:17;14.5;;;7.0;;
72123;SDS011;59998;37.126;-8.538;2022-08-04T02:43:09;12.9;;;7.2;;
72123;SDS011;59998;37.126;-8.538;2022-08-04T02:47:57;12.3;;;7.7;;
72123;SDS011;59998;37.126;-8.538;2022-08-04T02:52:48;14.1;;;7.2;;
72123;SDS011;59998;37.126;-8.538;2022-08-04T02:57:36;17.9;;;7.5;;
72123;SDS011;59998;37.126;-8.538;2022-08-04T03:02:28;16.5;;;8.1;;
72123;SDS011;59998;37.126;-8.538;2022-08-04T03:13:27;17.3;;;8.4;;
72123;SDS011;59998;37.126;-8.538;2022-08-04T03:28:49;14.4;;;8.3;;
72123;SDS011;59998;37.126;-8.538;2022-08-04T03:34:12;14.8;;;8.2;;
72123;SDS011;59998;37.126;-8.538;2022-08-04T03:44:58;16.1;;;8.1;;
72123;SDS011;59998;37.126;-8.538;2022-08-04T03:51:54;15.3;;;8.3;;
72123;SDS011;59998;37.126;-8.538;2022-08-04T03:57:10;19.0;;;9.0;;
72123;SDS011;59998;37.126;-8.538;2022-08-04T04:02:40;20.2;;;9.3;;
72123;SDS011;59998;37.126;-8.538;2022-08-04T04:08:49;17.2;;;9.5;;
72123;SDS011;59998;37.126;-8.538;2022-08-04T04:13:58;16.3;;;9.2;;
72123;SDS011;59998;37.126;-8.538;2022-08-04T04:25:33;21.2;;;9.8;;
72123;SDS011;59998;37.126;-8.538;2022-08-04T04:30:21;20.1;;;11.1;;
72123;SDS011;59998;37.126;-8.538;2022-08-04T04:35:17;22.0;;;11.7;;
72123;SDS011;59998;37.126;-8.538;2022-08-04T04:40:12;22.3;;;10.8;;
72123;SDS011;59998;37.126;-8.538;2022-08-04T04:45:13;20.8;;;10.5;;
72123;SDS011;59998;37.126;-8.538;2022-08-04T04:50:07;23.8;;;10.7;;
72123;SDS011;59998;37.126;-8.538;2022-08-04T04:55:01;22.8;;;9.8;;
72123;SDS011;59998;37.126;-8.538;2022-08-04T04:59:54;18.1;;;9.0;;
72123;SDS011;59998;37.126;-8.538;2022-08-04T05:05:05;16.4;;;8.6;;
72123;SDS011;59998;37.126;-8.538;2022-08-04T05:09:59;15.9;;;8.6;;
72123;SDS011;59998;37.126;-8.538;2022-08-04T05:14:52;13.8;;;8.4;;
72123;SDS011;59998;37.126;-8.538;2022-08-04T05:19:44;12.3;;;8.3;;
72123;SDS011;59998;37.126;-8.538;2022-08-04T05:24:38;15.3;;;8.7;;
72123;SDS011;59998;37.126;-8.538;2022-08-04T05:29:28;15.4;;;8.5;;
72123;SDS011;59998;37.126;-8.538;2022-08-04T05:34:20;16.1;;;9.0;;
72123;SDS011;59998;37.126;-8.538;2022-08-04T05:39:10;16.9;;;9.2;;
72123;SDS011;59998;37.126;-8.538;2022-08-04T05:44:00;16.4;;;9.1;;
72123;SDS011;59998;37.126;-8.538;2022-08-04T05:48:48;16.4;;;9.5;;
72123;SDS011;59998;37.126;-8.538;2022-08-04T05:53:34;16.4;;;9.4;;
72123;SDS011;59998;37.126;-8.538;2022-08-04T05:58:21;16.2;;;9.1;;
72123;SDS011;59998;37.126;-8.538;2022-08-04T06:03:07;15.2;;;9.1;;
72123;SDS011;59998;37.126;-8.538;2022-08-04T06:07:56;18.4;;;9.6;;
72123;SDS011;59998;37.126;-8.538;2022-08-04T06:12:45;18.0;;;9.8;;
72123;SDS011;59998;37.126;-8.538;2022-08-04T06:17:37;16.0;;;9.7;;
72123;SDS011;59998;37.126;-8.538;2022-08-04T06:22:23;15.5;;;9.5;;
72123;SDS011;59998;37.126;-8.538;2022-08-04T06:27:12;14.5;;;8.9;;
72123;SDS011;59998;37.126;-8.538;2022-08-04T06:32:00;16.0;;;9.2;;
72123;SDS011;59998;37.126;-8.538;2022-08-04T06:36:48;19.7;;;10.1;;
72123;SDS011;59998;37.126;-8.538;2022-08-04T06:41:35;20.1;;;10.2;;
72123;SDS011;59998;37.126;-8.538;2022-08-04T06:46:22;17.2;;;10.0;;
72123;SDS011;59998;37.126;-8.538;2022-08-04T06:51:08;19.0;;;10.4;;
72123;SDS011;59998;37.126;-8.538;2022-08-04T06:55:58;19.0;;;10.1;;
72123;SDS011;59998;37.126;-8.538;2022-08-04T07:00:46;17.0;;;9.5;;
72123;SDS011;59998;37.126;-8.538;2022-08-04T07:05:34;23.4;;;10.1;;
72123;SDS011;59998;37.126;-8.538;2022-08-04T07:10:21;23.6;;;10.0;;
72123;SDS011;59998;37.126;-8.538;2022-08-04T07:15:08;17.7;;;9.4;;
72123;SDS011;59998;37.126;-8.538;2022-08-04T07:19:56;17.1;;;9.3;;
72123;SDS011;59998;37.126;-8.538;2022-08-04T07:24:42;15.4;;;9.1;;
72123;SDS011;59998;37.126;-8.538;2022-08-04T07:29:28;14.3;;;8.8;;
72123;SDS011;59998;37.126;-8.538;2022-08-04T07:34:15;17.7;;;9.4;;
72123;SDS011;59998;37.126;-8.538;2022-08-04T07:39:03;17.5;;;9.6;;
72123;SDS011;59998;37.126;-8.538;2022-08-04T07:43:49;14.7;;;8.8;;
72123;SDS011;59998;37.126;-8.538;2022-08-04T07:48:36;14.9;;;8.8;;
72123;SDS011;59998;37.126;-8.538;2022-08-04T07:53:22;13.9;;;9.1;;
72123;SDS011;59998;37.126;-8.538;2022-08-04T07:58:11;12.6;;;9.2;;
72123;SDS011;59998;37.126;-8.538;2022-08-04T08:02:57;14.9;;;9.1;;
72123;SDS011;59998;37.126;-8.538;2022-08-04T08:07:45;15.8;;;8.5;;
72123;SDS011;59998;37.126;-8.538;2022-08-04T08:12:32;15.1;;;8.8;;
72123;SDS011;59998;37.126;-8.538;2022-08-04T08:17:19;17.2;;;9.1;;
72123;SDS011;59998;37.126;-8.538;2022-08-04T08:22:05;16.0;;;8.7;;
72123;SDS011;59998;37.126;-8.538;2022-08-04T08:26:51;14.2;;;8.7;;
72123;SDS011;59998;37.126;-8.538;2022-08-04T08:31:38;15.3;;;8.8;;
72123;SDS011;59998;37.126;-8.538;2022-08-04T08:36:25;16.1;;;8.6;;
72123;SDS011;59998;37.126;-8.538;2022-08-04T08:41:27;15.6;;;8.3;;
72123;SDS011;59998;37.126;-8.538;2022-08-04T08:48:43;14.6;;;8.3;;
72123;SDS011;59998;37.126;-8.538;2022-08-04T08:54:16;14.1;;;8.4;;
72123;SDS011;59998;37.126;-8.538;2022-08-04T09:01:24;13.1;;;8.1;;
72123;SDS011;59998;37.126;-8.538;2022-08-04T09:06:40;12.0;;;7.9;;
72123;SDS011;59998;37.126;-8.538;2022-08-04T09:11:33;13.6;;;8.7;;
72123;SDS011;59998;37.126;-8.538;2022-08-04T09:16:29;13.6;;;11.8;;
72123;SDS011;59998;37.126;-8.538;2022-08-04T09:21:25;21.8;;;12.5;;
72123;SDS011;59998;37.126;-8.538;2022-08-04T09:26:20;15.9;;;14.0;;
72123;SDS011;59998;37.126;-8.538;2022-08-04T09:31:14;14.5;;;13.0;;
72123;SDS011;59998;37.126;-8.538;2022-08-04T09:36:06;13.5;;;8.2;;
72123;SDS011;59998;37.126;-8.538;2022-08-04T09:41:02;13.7;;;8.2;;
72123;SDS011;59998;37.126;-8.538;2022-08-04T09:46:01;15.8;;;8.5;;
72123;SDS011;59998;37.126;-8.538;2022-08-04T09:50:52;16.0;;;8.7;;
72123;SDS011;59998;37.126;-8.538;2022-08-04T09:55:45;16.0;;;8.8;;
72123;SDS011;59998;37.126;-8.538;2022-08-04T10:00:39;19.2;;;9.4;;
72123;SDS011;59998;37.126;-8.538;2022-08-04T10:05:37;24.0;;;10.5;;
72123;SDS011;59998;37.126;-8.538;2022-08-04T10:10:35;23.4;;;10.7;;
72123;SDS011;59998;37.126;-8.538;2022-08-04T10:15:27;22.9;;;10.2;;
72123;SDS011;59998;37.126;-8.538;2022-08-04T10:20:21;21.8;;;10.5;;
72123;SDS011;59998;37.126;-8.538;2022-08-04T10:25:20;18.9;;;10.1;;
72123;SDS011;59998;37.126;-8.538;2022-08-04T10:30:12;20.8;;;9.4;;
72123;SDS011;59998;37.126;-8.538;2022-08-04T10:35:04;18.9;;;9.1;;
72123;SDS011;59998;37.126;-8.538;2022-08-04T10:39:55;16.3;;;9.0;;
72123;SDS011;59998;37.126;-8.538;2022-08-04T10:44:46;16.1;;;9.1;;
72123;SDS011;59998;37.126;-8.538;2022-08-04T10:49:45;15.5;;;9.0;;
72123;SDS011;59998;37.126;-8.538;2022-08-04T10:54:36;15.4;;;8.9;;
72123;SDS011;59998;37.126;-8.538;2022-08-04T10:59:27;15.5;;;9.2;;
72123;SDS011;59998;37.126;-8.538;2022-08-04T11:04:22;16.0;;;9.0;;
72123;SDS011;59998;37.126;-8.538;2022-08-04T11:09:14;15.1;;;8.7;;
72123;SDS011;59998;37.126;-8.538;2022-08-04T11:14:03;16.0;;;8.8;;
72123;SDS011;59998;37.126;-8.538;2022-08-04T11:18:53;17.1;;;8.6;;
72123;SDS011;59998;37.126;-8.538;2022-08-04T11:23:52;18.6;;;8.9;;
72123;SDS011;59998;37.126;-8.538;2022-08-04T11:28:47;17.3;;;9.1;;
72123;SDS011;59998;37.126;-8.538;2022-08-04T11:33:40;14.1;;;9.2;;
72123;SDS011;59998;37.126;-8.538;2022-08-04T11:38:37;15.3;;;9.1;;
72123;SDS011;59998;37.126;-8.538;2022-08-04T11:43:34;16.9;;;9.1;;
72123;SDS011;59998;37.126;-8.538;2022-08-04T11:48:28;16.5;;;8.9;;
72123;SDS011;59998;37.126;-8.538;2022-08-04T11:53:22;15.7;;;8.8;;
72123;SDS011;59998;37.126;-8.538;2022-08-04T11:58:10;15.4;;;8.8;;
72123;SDS011;59998;37.126;-8.538;2022-08-04T12:03:04;13.7;;;8.6;;
72123;SDS011;59998;37.126;-8.538;2022-08-04T12:07:59;15.0;;;8.9;;
72123;SDS011;59998;37.126;-8.538;2022-08-04T12:12:57;15.7;;;8.7;;
72123;SDS011;59998;37.126;-8.538;2022-08-04T12:17:56;14.1;;;8.4;;
72123;SDS011;59998;37.126;-8.538;2022-08-04T12:22:50;15.5;;;8.8;;
72123;SDS011;59998;37.126;-8.538;2022-08-04T12:27:41;15.8;;;9.0;;
72123;SDS011;59998;37.126;-8.538;2022-08-04T12:32:34;14.9;;;9.2;;
72123;SDS011;59998;37.126;-8.538;2022-08-04T12:37:25;15.8;;;9.1;;
72123;SDS011;59998;37.126;-8.538;2022-08-04T12:42:18;16.1;;;9.8;;
72123;SDS011;59998;37.126;-8.538;2022-08-04T12:47:12;16.7;;;10.2;;
72123;SDS011;59998;37.126;-8.538;2022-08-04T12:52:02;16.3;;;9.5;;
72123;SDS011;59998;37.126;-8.538;2022-08-04T12:56:51;18.0;;;10.0;;
72123;SDS011;59998;37.126;-8.538;2022-08-04T13:01:38;18.6;;;10.2;;
72123;SDS011;59998;37.126;-8.538;2022-08-04T13:06:30;15.8;;;9.5;;
72123;SDS011;59998;37.126;-8.538;2022-08-04T13:11:17;15.8;;;9.5;;
72123;SDS011;59998;37.126;-8.538;2022-08-04T13:16:05;19.1;;;9.5;;
72123;SDS011;59998;37.126;-8.538;2022-08-04T13:20:53;17.3;;;9.3;;
72123;SDS011;59998;37.126;-8.538;2022-08-04T13:25:41;12.3;;;8.9;;
72123;SDS011;59998;37.126;-8.538;2022-08-04T13:30:30;14.4;;;9.0;;
72123;SDS011;59998;37.126;-8.538;2022-08-04T13:35:17;16.9;;;9.4;;
72123;SDS011;59998;37.126;-8.538;2022-08-04T13:40:04;18.9;;;9.6;;
72123;SDS011;59998;37.126;-8.538;2022-08-04T13:44:55;20.5;;;9.4;;
72123;SDS011;59998;37.126;-8.538;2022-08-04T13:49:42;19.3;;;9.1;;
72123;SDS011;59998;37.126;-8.538;2022-08-04T13:54:52;16.1;;;9.1;;
72123;SDS011;59998;37.126;-8.538;2022-08-04T13:59:41;13.5;;;8.7;;
72123;SDS011;59998;37.126;-8.538;2022-08-04T14:04:31;15.9;;;8.9;;
72123;SDS011;59998;37.126;-8.538;2022-08-04T14:09:21;21.5;;;9.9;;
72123;SDS011;59998;37.126;-8.538;2022-08-04T14:14:15;22.2;;;10.2;;
72123;SDS011;59998;37.126;-8.538;2022-08-04T14:19:01;18.0;;;9.5;;
72123;SDS011;59998;37.126;-8.538;2022-08-04T14:23:49;15.9;;;9.4;;
72123;SDS011;59998;37.126;-8.538;2022-08-04T14:28:36;16.1;;;9.3;;
72123;SDS011;59998;37.126;-8.538;2022-08-04T14:33:22;18.7;;;8.8;;
72123;SDS011;59998;37.126;-8.538;2022-08-04T14:38:09;18.2;;;8.6;;
72123;SDS011;59998;37.126;-8.538;2022-08-04T14:42:56;20.7;;;9.3;;
72123;SDS011;59998;37.126;-8.538;2022-08-04T14:47:44;21.0;;;9.1;;
72123;SDS011;59998;37.126;-8.538;2022-08-04T14:52:31;16.0;;;8.6;;
72123;SDS011;59998;37.126;-8.538;2022-08-04T14:57:17;14.6;;;8.9;;
72123;SDS011;59998;37.126;-8.538;2022-08-04T15:02:03;16.1;;;8.6;;
72123;SDS011;59998;37.126;-8.538;2022-08-04T15:06:50;16.6;;;8.6;;
72123;SDS011;59998;37.126;-8.538;2022-08-04T15:11:37;14.1;;;8.6;;
72123;SDS011;59998;37.126;-8.538;2022-08-04T15:16:25;13.2;;;8.3;;
72123;SDS011;59998;37.126;-8.538;2022-08-04T15:21:14;12.9;;;7.8;;
72123;SDS011;59998;37.126;-8.538;2022-08-04T15:26:02;12.8;;;7.6;;
72123;SDS011;59998;37.126;-8.538;2022-08-04T15:30:50;14.3;;;7.9;;
72123;SDS011;59998;37.126;-8.538;2022-08-04T15:35:39;14.7;;;7.8;;
72123;SDS011;59998;37.126;-8.538;2022-08-04T15:40:34;13.1;;;8.0;;
72123;SDS011;59998;37.126;-8.538;2022-08-04T15:45:28;14.7;;;8.2;;
72123;SDS011;59998;37.126;-8.538;2022-08-04T15:50:22;14.5;;;8.0;;
72123;SDS011;59998;37.126;-8.538;2022-08-04T15:55:30;14.0;;;7.6;;
72123;SDS011;59998;37.126;-8.538;2022-08-04T16:00:17;12.9;;;7.3;;
72123;SDS011;59998;37.126;-8.538;2022-08-04T16:10:42;12.3;;;7.0;;
72123;SDS011;59998;37.126;-8.538;2022-08-04T16:15:39;12.6;;;7.6;;
72123;SDS011;59998;37.126;-8.538;2022-08-04T16:20:25;11.8;;;7.3;;
72123;SDS011;59998;37.126;-8.538;2022-08-04T16:25:12;11.5;;;7.0;;
72123;SDS011;59998;37.126;-8.538;2022-08-04T16:30:03;11.6;;;7.3;;
72123;SDS011;59998;37.126;-8.538;2022-08-04T16:34:53;11.5;;;7.0;;
72123;SDS011;59998;37.126;-8.538;2022-08-04T16:39:41;13.6;;;7.1;;
72123;SDS011;59998;37.126;-8.538;2022-08-04T16:44:30;13.7;;;7.1;;
72123;SDS011;59998;37.126;-8.538;2022-08-04T16:49:17;11.8;;;7.2;;
72123;SDS011;59998;37.126;-8.538;2022-08-04T16:54:03;13.1;;;7.0;;
72123;SDS011;59998;37.126;-8.538;2022-08-04T16:58:50;12.8;;;7.1;;
72123;SDS011;59998;37.126;-8.538;2022-08-04T17:03:36;15.3;;;7.5;;
72123;SDS011;59998;37.126;-8.538;2022-08-04T17:08:25;15.3;;;7.0;;
72123;SDS011;59998;37.126;-8.538;2022-08-04T17:13:23;11.3;;;7.0;;
72123;SDS011;59998;37.126;-8.538;2022-08-04T17:18:18;10.8;;;7.0;;
72123;SDS011;59998;37.126;-8.538;2022-08-04T17:23:22;10.9;;;6.8;;
72123;SDS011;59998;37.126;-8.538;2022-08-04T17:28:08;10.8;;;6.6;;
72123;SDS011;59998;37.126;-8.538;2022-08-04T17:32:55;9.9;;;6.1;;
72123;SDS011;59998;37.126;-8.538;2022-08-04T17:37:41;10.6;;;6.4;;
72123;SDS011;59998;37.126;-8.538;2022-08-04T17:42:30;11.1;;;6.8;;
72123;SDS011;59998;37.126;-8.538;2022-08-04T17:47:18;9.5;;;6.3;;
72123;SDS011;59998;37.126;-8.538;2022-08-04T17:52:04;10.5;;;6.2;;
72123;SDS011;59998;37.126;-8.538;2022-08-04T17:56:51;11.9;;;6.8;;
72123;SDS011;59998;37.126;-8.538;2022-08-04T18:01:42;9.9;;;6.6;;
72123;SDS011;59998;37.126;-8.538;2022-08-04T18:06:29;11.6;;;6.2;;
72123;SDS011;59998;37.126;-8.538;2022-08-04T18:11:18;13.4;;;6.1;;
72123;SDS011;59998;37.126;-8.538;2022-08-04T18:16:05;10.7;;;6.1;;
72123;SDS011;59998;37.126;-8.538;2022-08-04T18:20:51;12.9;;;6.3;;
72123;SDS011;59998;37.126;-8.538;2022-08-04T18:25:42;14.4;;;6.5;;
72123;SDS011;59998;37.126;-8.538;2022-08-04T18:30:29;12.2;;;6.8;;
72123;SDS011;59998;37.126;-8.538;2022-08-04T18:35:16;12.2;;;6.9;;
72123;SDS011;59998;37.126;-8.538;2022-08-04T18:40:02;11.4;;;6.8;;
72123;SDS011;59998;37.126;-8.538;2022-08-04T18:44:49;14.2;;;6.3;;
72123;SDS011;59998;37.126;-8.538;2022-08-04T18:49:35;17.5;;;6.6;;
72123;SDS011;59998;37.126;-8.538;2022-08-04T18:54:22;17.4;;;7.0;;
72123;SDS011;59998;37.126;-8.538;2022-08-04T18:59:09;13.5;;;6.5;;
72123;SDS011;59998;37.126;-8.538;2022-08-04T19:03:55;11.5;;;6.5;;
72123;SDS011;59998;37.126;-8.538;2022-08-04T19:08:41;11.8;;;6.9;;
72123;SDS011;59998;37.126;-8.538;2022-08-04T19:13:27;12.8;;;7.0;;
72123;SDS011;59998;37.126;-8.538;2022-08-04T19:18:13;16.3;;;7.0;;
72123;SDS011;59998;37.126;-8.538;2022-08-04T19:22:59;14.3;;;7.1;;
72123;SDS011;59998;37.126;-8.538;2022-08-04T19:27:45;12.7;;;7.1;;
72123;SDS011;59998;37.126;-8.538;2022-08-04T19:32:31;14.0;;;6.7;;
72123;SDS011;59998;37.126;-8.538;2022-08-04T19:37:17;16.2;;;7.3;;
72123;SDS011;59998;37.126;-8.538;2022-08-04T19:42:04;15.9;;;7.7;;
72123;SDS011;59998;37.126;-8.538;2022-08-04T19:46:50;13.5;;;7.5;;
72123;SDS011;59998;37.126;-8.538;2022-08-04T19:51:37;14.0;;;7.6;;
72123;SDS011;59998;37.126;-8.538;2022-08-04T19:56:25;14.0;;;7.6;;
72123;SDS011;59998;37.126;-8.538;2022-08-04T20:01:12;13.8;;;7.2;;
72123;SDS011;59998;37.126;-8.538;2022-08-04T20:05:58;14.0;;;6.8;;
72123;SDS011;59998;37.126;-8.538;2022-08-04T20:10:47;13.8;;;7.1;;
72123;SDS011;59998;37.126;-8.538;2022-08-04T20:15:33;13.7;;;7.4;;
72123;SDS011;59998;37.126;-8.538;2022-08-04T20:20:20;15.5;;;7.2;;
72123;SDS011;59998;37.126;-8.538;2022-08-04T20:25:07;13.9;;;6.8;;
72123;SDS011;59998;37.126;-8.538;2022-08-04T20:29:54;13.4;;;7.0;;
72123;SDS011;59998;37.126;-8.538;2022-08-04T20:34:40;13.4;;;7.3;;
72123;SDS011;59998;37.126;-8.538;2022-08-04T20:39:27;12.7;;;7.4;;
72123;SDS011;59998;37.126;-8.538;2022-08-04T20:44:13;13.9;;;7.4;;
72123;SDS011;59998;37.126;-8.538;2022-08-04T20:49:00;12.0;;;7.0;;
72123;SDS011;59998;37.126;-8.538;2022-08-04T20:53:45;10.5;;;6.8;;
72123;SDS011;59998;37.126;-8.538;2022-08-04T20:58:32;14.8;;;6.6;;
72123;SDS011;59998;37.126;-8.538;2022-08-04T21:03:20;15.5;;;6.8;;
72123;SDS011;59998;37.126;-8.538;2022-08-04T21:08:06;14.2;;;7.3;;
72123;SDS011;59998;37.126;-8.538;2022-08-04T21:12:52;14.8;;;7.6;;
72123;SDS011;59998;37.126;-8.538;2022-08-04T21:17:39;15.1;;;7.3;;
72123;SDS011;59998;37.126;-8.538;2022-08-04T21:22:26;14.5;;;7.0;;
72123;SDS011;59998;37.126;-8.538;2022-08-04T21:27:13;11.5;;;7.3;;
72123;SDS011;59998;37.126;-8.538;2022-08-04T21:31:59;13.9;;;8.1;;
72123;SDS011;59998;37.126;-8.538;2022-08-04T21:36:45;15.1;;;8.5;;
72123;SDS011;59998;37.126;-8.538;2022-08-04T21:41:31;13.5;;;7.4;;
72123;SDS011;59998;37.126;-8.538;2022-08-04T21:46:18;14.6;;;7.0;;
72123;SDS011;59998;37.126;-8.538;2022-08-04T21:51:13;17.2;;;7.9;;
72123;SDS011;59998;37.126;-8.538;2022-08-04T21:56:00;17.2;;;7.9;;
72123;SDS011;59998;37.126;-8.538;2022-08-04T22:00:46;17.3;;;7.6;;
72123;SDS011;59998;37.126;-8.538;2022-08-04T22:05:32;16.5;;;7.5;;
72123;SDS011;59998;37.126;-8.538;2022-08-04T22:10:19;14.9;;;7.4;;
72123;SDS011;59998;37.126;-8.538;2022-08-04T22:15:06;13.0;;;7.0;;
72123;SDS011;59998;37.126;-8.538;2022-08-04T22:19:53;10.8;;;6.8;;
72123;SDS011;59998;37.126;-8.538;2022-08-04T22:24:39;12.3;;;7.4;;
72123;SDS011;59998;37.126;-8.538;2022-08-04T22:29:25;13.9;;;7.4;;
72123;SDS011;59998;37.126;-8.538;2022-08-04T22:34:11;14.1;;;7.1;;
72123;SDS011;59998;37.126;-8.538;2022-08-04T22:39:00;12.9;;;7.0;;
72123;SDS011;59998;37.126;-8.538;2022-08-04T22:43:47;13.2;;;7.3;;
72123;SDS011;59998;37.126;-8.538;2022-08-04T22:48:35;14.3;;;7.5;;
72123;SDS011;59998;37.126;-8.538;2022-08-04T22:53:22;12.7;;;7.4;;
72123;SDS011;59998;37.126;-8.538;2022-08-04T22:58:09;12.1;;;8.0;;
72123;SDS011;59998;37.126;-8.538;2022-08-04T23:02:56;13.1;;;8.0;;
72123;SDS011;59998;37.126;-8.538;2022-08-04T23:07:42;12.8;;;7.8;;
72123;SDS011;59998;37.126;-8.538;2022-08-04T23:12:28;14.1;;;7.8;;
72123;SDS011;59998;37.126;-8.538;2022-08-04T23:17:15;16.5;;;7.5;;
72123;SDS011;59998;37.126;-8.538;2022-08-04T23:22:01;14.0;;;7.4;;
72123;SDS011;59998;37.126;-8.538;2022-08-04T23:26:48;11.3;;;7.4;;
72123;SDS011;59998;37.126;-8.538;2022-08-04T23:31:34;12.9;;;7.5;;
72123;SDS011;59998;37.126;-8.538;2022-08-04T23:36:21;14.1;;;7.5;;
72123;SDS011;59998;37.126;-8.538;2022-08-04T23:41:07;13.1;;;7.6;;
72123;SDS011;59998;37.126;-8.538;2022-08-04T23:45:55;12.3;;;7.8;;
72123;SDS011;59998;37.126;-8.538;2022-08-04T23:50:41;12.1;;;7.8;;
72123;SDS011;59998;37.126;-8.538;2022-08-04T23:55:29;12.7;;;7.7;;
